Time;durP1;ratioP1;P1;durP2;ratioP2;P2;SDS_P1;SDS_P2;PMS_P1;PMS_P2;Temp;Humidity;BMP_temperature;BMP_pressure;BME280_temperature;BME280_humidity;BME280_pressure;Samples;Min_cycle;Max_cycle;Signal;HPM_P1;HPM_P2
2023/10/10 00:00:57;;;;;;;15.95;8.98;;;12.20;99.90;;;;;;4925744;28;87539;-73
2023/10/10 00:03:26;;;;;;;15.20;9.35;;;12.20;99.90;;;;;;4925394;28;88851;-74
2023/10/10 00:05:58;;;;;;;18.45;8.77;;;12.20;99.90;;;;;;4928740;28;91009;-74
2023/10/10 00:08:33;;;;;;;14.98;8.70;;;12.20;99.90;;;;;;4923966;28;88652;-72
2023/10/10 00:10:59;;;;;;;16.13;8.73;;;12.20;99.90;;;;;;4914725;28;90117;-72
2023/10/10 00:13:26;;;;;;;16.15;8.93;;;12.10;99.90;;;;;;4929149;28;91561;-73
2023/10/10 00:15:55;;;;;;;13.38;8.60;;;12.20;99.90;;;;;;4925608;28;89182;-73
2023/10/10 00:18:29;;;;;;;17.35;9.75;;;12.20;99.90;;;;;;4911961;28;87650;-72
2023/10/10 00:21:08;;;;;;;13.52;9.20;;;12.10;99.90;;;;;;4925995;28;87438;-73
2023/10/10 00:23:47;;;;;;;13.10;8.32;;;12.10;99.90;;;;;;4930859;28;91707;-75
2023/10/10 00:26:23;;;;;;;16.80;9.27;;;12.10;99.90;;;;;;4907406;28;91314;-73
2023/10/10 00:28:56;;;;;;;17.88;9.95;;;12.10;99.90;;;;;;4925548;28;87978;-74
2023/10/10 00:31:25;;;;;;;17.70;10.20;;;12.00;99.90;;;;;;4923935;28;88028;-73
2023/10/10 00:33:51;;;;;;;15.48;9.40;;;12.00;99.90;;;;;;4910655;28;92732;-73
2023/10/10 00:36:22;;;;;;;17.63;9.25;;;12.10;99.90;;;;;;4927290;28;92087;-72
2023/10/10 00:41:50;;;;;;;19.60;9.57;;;12.00;99.90;;;;;;4924116;28;87785;-73
2023/10/10 00:44:17;;;;;;;14.43;9.45;;;12.00;99.90;;;;;;4924811;28;90683;-74
2023/10/10 00:46:47;;;;;;;16.67;8.85;;;12.00;99.90;;;;;;4926630;28;91924;-73
2023/10/10 00:49:16;;;;;;;20.85;9.15;;;12.00;99.90;;;;;;4917650;28;87838;-72
2023/10/10 00:51:47;;;;;;;18.63;10.30;;;12.00;99.90;;;;;;4923512;28;87370;-72
2023/10/10 00:56:46;;;;;;;16.73;8.75;;;12.00;99.90;;;;;;4925077;28;92884;-74
2023/10/10 00:59:11;;;;;;;17.02;9.05;;;12.00;99.90;;;;;;4925841;28;89169;-74
2023/10/10 01:01:40;;;;;;;15.48;8.95;;;11.90;99.90;;;;;;4923213;28;88189;-74
2023/10/10 01:04:11;;;;;;;14.35;8.93;;;11.90;99.90;;;;;;4922688;28;88131;-73
2023/10/10 01:06:39;;;;;;;21.55;10.30;;;11.90;99.90;;;;;;4924330;28;88375;-72
2023/10/10 01:09:20;;;;;;;17.08;8.52;;;11.80;99.90;;;;;;4924860;28;88065;-74
2023/10/10 01:11:50;;;;;;;16.67;8.73;;;11.80;99.90;;;;;;4928882;28;93619;-74
2023/10/10 01:14:24;;;;;;;12.93;8.38;;;11.80;99.90;;;;;;4927247;28;91287;-73
2023/10/10 01:16:57;;;;;;;17.75;9.10;;;11.80;99.90;;;;;;4925254;28;88532;-73
2023/10/10 01:19:30;;;;;;;13.95;9.13;;;11.70;99.90;;;;;;4914562;28;88645;-74
2023/10/10 01:21:59;;;;;;;14.80;9.40;;;11.80;99.90;;;;;;4928391;28;90181;-74
2023/10/10 01:24:30;;;;;;;18.17;9.18;;;11.70;99.90;;;;;;4911505;28;92786;-73
2023/10/10 01:27:03;;;;;;;12.77;8.25;;;11.70;99.90;;;;;;4909192;28;91010;-72
2023/10/10 01:29:40;;;;;;;14.70;8.13;;;11.70;99.90;;;;;;4923515;28;88540;-72
2023/10/10 01:32:07;;;;;;;14.82;9.23;;;11.60;99.90;;;;;;4914772;28;90458;-73
2023/10/10 01:37:13;;;;;;;16.88;9.10;;;11.60;99.90;;;;;;4923421;28;87855;-75
2023/10/10 01:40:16;;;;;;;18.20;9.18;;;11.70;99.90;;;;;;4905764;28;87957;-74
2023/10/10 01:42:53;;;;;;;15.75;8.85;;;11.70;99.90;;;;;;4905030;28;90513;-73
2023/10/10 01:45:20;;;;;;;18.35;10.18;;;11.70;99.90;;;;;;4912396;28;90772;-73
2023/10/10 01:48:08;;;;;;;19.10;9.38;;;11.70;99.90;;;;;;4922534;28;87953;-75
2023/10/10 01:50:34;;;;;;;21.50;11.43;;;11.70;99.90;;;;;;4922842;28;88789;-74
2023/10/10 01:53:00;;;;;;;19.95;10.93;;;11.70;99.90;;;;;;4924119;28;87976;-73
2023/10/10 01:55:26;;;;;;;23.42;11.20;;;11.80;99.90;;;;;;4912598;28;91373;-72
2023/10/10 01:57:57;;;;;;;21.95;10.30;;;11.80;99.90;;;;;;4923268;28;88419;-73
2023/10/10 02:00:26;;;;;;;19.00;9.88;;;11.80;99.90;;;;;;4909027;28;87901;-72
2023/10/10 02:02:55;;;;;;;15.70;9.25;;;11.80;99.90;;;;;;4924469;28;87908;-75
2023/10/10 02:08:09;;;;;;;16.38;9.82;;;11.90;99.90;;;;;;4922406;28;88349;-73
2023/10/10 02:10:36;;;;;;;15.97;9.97;;;11.90;99.90;;;;;;4924234;28;88220;-73
2023/10/10 02:13:05;;;;;;;20.63;9.75;;;11.90;99.90;;;;;;4923137;28;87505;-72
2023/10/10 02:15:36;;;;;;;19.30;9.68;;;11.90;99.90;;;;;;4923052;28;89231;-73
2023/10/10 02:18:05;;;;;;;21.40;9.77;;;11.90;99.90;;;;;;4926255;28;92492;-73
2023/10/10 02:20:49;;;;;;;19.20;10.82;;;11.80;99.90;;;;;;4923067;28;87966;-72
2023/10/10 02:23:31;;;;;;;22.38;9.57;;;11.80;99.90;;;;;;4923688;28;87887;-73
2023/10/10 02:29:16;;;;;;;19.55;8.90;;;11.80;99.90;;;;;;4922327;28;88249;-73
2023/10/10 02:31:29;;;;;;;19.17;9.55;;;11.80;99.90;;;;;;4922396;28;87969;-73
2023/10/10 02:34:09;;;;;;;23.42;10.25;;;11.80;99.90;;;;;;4923366;28;86851;-73
2023/10/10 02:36:35;;;;;;;21.73;10.80;;;11.80;99.90;;;;;;4922759;28;88152;-74
2023/10/10 02:41:48;;;;;;;21.23;10.40;;;11.80;99.90;;;;;;4923620;28;88600;-73
2023/10/10 02:44:26;;;;;;;17.55;9.10;;;11.80;99.90;;;;;;4910692;28;90529;-73
2023/10/10 02:46:54;;;;;;;18.58;9.60;;;11.80;99.90;;;;;;4927242;28;87879;-73
2023/10/10 02:49:29;;;;;;;16.45;9.73;;;11.80;99.90;;;;;;4917559;28;91408;-75
2023/10/10 02:51:56;;;;;;;17.17;9.95;;;11.70;99.90;;;;;;4927416;28;88275;-72
2023/10/10 02:54:28;;;;;;;18.55;10.60;;;11.70;99.90;;;;;;4932318;28;89893;-74
2023/10/10 02:57:27;;;;;;;16.25;8.68;;;11.70;99.90;;;;;;4910458;28;91138;-74
2023/10/10 02:59:59;;;;;;;18.80;9.10;;;11.70;99.90;;;;;;4927096;28;92267;-73
2023/10/10 03:02:40;;;;;;;17.10;8.98;;;11.70;99.90;;;;;;4931140;28;88141;-73
2023/10/10 03:05:06;;;;;;;17.58;8.95;;;11.70;99.90;;;;;;4917069;28;87692;-73
2023/10/10 03:07:35;;;;;;;18.15;8.60;;;11.70;99.90;;;;;;4926996;28;89027;-73
2023/10/10 03:12:37;;;;;;;16.77;8.68;;;11.70;99.90;;;;;;4926893;28;87596;-73
2023/10/10 03:15:14;;;;;;;22.42;8.93;;;11.70;99.90;;;;;;4911595;28;90605;-76
2023/10/10 03:17:48;;;;;;;16.17;8.13;;;11.70;99.90;;;;;;4930972;28;91296;-73
2023/10/10 03:28:20;;;;;;;13.82;7.65;;;11.60;99.90;;;;;;4925406;28;88303;-74
2023/10/10 03:31:04;;;;;;;17.73;8.75;;;11.60;99.90;;;;;;4913839;28;90850;-72
2023/10/10 03:36:22;;;;;;;23.63;8.48;;;11.60;99.90;;;;;;4927207;28;87694;-76
2023/10/10 05:23:29;;;;;;;14.45;8.15;;;11.60;99.90;;;;;;4925625;28;88413;-74
2023/10/10 05:25:24;;;;;;;16.65;7.90;;;11.00;99.90;;;;;;4925002;28;88139;-74
2023/10/10 05:27:58;;;;;;;13.07;7.57;;;11.00;99.90;;;;;;4912519;28;91728;-73
2023/10/10 05:30:39;;;;;;;18.35;7.43;;;10.90;99.90;;;;;;4922561;28;91241;-73
2023/10/10 05:33:19;;;;;;;14.48;7.75;;;10.90;99.90;;;;;;4917000;28;87674;-74
2023/10/10 05:35:48;;;;;;;14.63;7.28;;;10.90;99.90;;;;;;4927595;28;94254;-75
2023/10/10 05:38:16;;;;;;;14.60;7.30;;;10.90;99.90;;;;;;4913296;28;91993;-74
2023/10/10 05:40:43;;;;;;;15.32;7.95;;;10.80;99.90;;;;;;4912441;28;91286;-74
2023/10/10 05:43:15;;;;;;;16.55;8.90;;;10.80;99.90;;;;;;4915916;28;87624;-73
2023/10/10 05:45:42;;;;;;;12.82;7.13;;;10.80;99.90;;;;;;4913659;28;88523;-73
2023/10/10 05:48:08;;;;;;;15.80;8.00;;;10.80;99.90;;;;;;4925896;28;89724;-74
2023/10/10 05:50:34;;;;;;;16.15;8.45;;;10.70;99.90;;;;;;4926060;28;92485;-73
2023/10/10 05:53:06;;;;;;;14.05;7.30;;;10.70;99.90;;;;;;4928097;28;87926;-74
2023/10/10 05:55:37;;;;;;;11.13;6.32;;;10.70;99.90;;;;;;4929008;28;90784;-73
2023/10/10 05:58:03;;;;;;;12.52;5.75;;;10.60;99.90;;;;;;4925660;28;88109;-74
2023/10/10 06:00:41;;;;;;;17.25;8.25;;;10.60;99.90;;;;;;4924636;28;89810;-74
2023/10/10 06:03:07;;;;;;;18.70;6.35;;;10.60;99.90;;;;;;4909625;28;87878;-73
2023/10/10 06:05:36;;;;;;;17.88;7.20;;;10.60;99.90;;;;;;4924114;28;88261;-73
2023/10/10 06:08:02;;;;;;;13.73;7.38;;;10.60;99.90;;;;;;4913923;28;90422;-76
2023/10/10 06:10:33;;;;;;;14.73;8.13;;;10.60;99.90;;;;;;4922636;28;87408;-72
2023/10/10 06:13:20;;;;;;;12.18;7.63;;;10.60;99.90;;;;;;4924423;28;88528;-74
2023/10/10 06:15:45;;;;;;;13.07;6.63;;;10.60;99.90;;;;;;4922743;28;89080;-73
2023/10/10 06:18:13;;;;;;;13.68;7.32;;;10.50;99.90;;;;;;4912999;28;92154;-74
2023/10/10 06:20:43;;;;;;;14.75;7.40;;;10.50;99.90;;;;;;4924682;28;88498;-73
2023/10/10 06:23:17;;;;;;;17.42;7.78;;;10.60;99.90;;;;;;4911861;28;88329;-74
2023/10/10 06:25:43;;;;;;;16.30;7.70;;;10.60;99.90;;;;;;4929521;28;91294;-75
2023/10/10 06:28:22;;;;;;;19.05;8.30;;;10.60;99.90;;;;;;4924255;28;88609;-74
2023/10/10 06:30:55;;;;;;;17.02;7.50;;;10.60;99.90;;;;;;4926630;28;89338;-75
2023/10/10 06:33:28;;;;;;;15.35;8.00;;;10.60;99.90;;;;;;4923250;28;87795;-76
2023/10/10 06:41:41;;;;;;;15.38;7.43;;;10.80;99.90;;;;;;4924270;28;88071;-74
2023/10/10 06:44:13;;;;;;;15.00;7.97;;;10.80;99.90;;;;;;4912539;28;87695;-72
2023/10/10 06:46:42;;;;;;;17.45;8.02;;;10.80;99.90;;;;;;4922646;28;87425;-72
2023/10/10 06:49:11;;;;;;;17.23;8.27;;;10.90;99.90;;;;;;4902396;28;91960;-71
2023/10/10 06:51:40;;;;;;;17.50;8.75;;;11.00;99.90;;;;;;4906422;28;87766;-71
2023/10/10 06:54:19;;;;;;;15.75;9.20;;;11.10;99.90;;;;;;4913250;28;88254;-72
2023/10/10 06:59:28;;;;;;;16.50;9.50;;;11.30;99.90;;;;;;4923588;28;88244;-71
2023/10/10 07:01:57;;;;;;;20.05;8.73;;;11.40;99.90;;;;;;4909705;28;91798;-72
2023/10/10 07:04:23;;;;;;;17.65;9.18;;;11.50;99.90;;;;;;4924355;28;89165;-72
2023/10/10 07:06:51;;;;;;;16.50;8.82;;;11.60;99.90;;;;;;4912261;28;87606;-72
2023/10/10 07:09:29;;;;;;;20.25;8.82;;;11.70;99.90;;;;;;4926586;28;91120;-71
2023/10/10 07:11:59;;;;;;;14.32;7.95;;;11.90;99.90;;;;;;4924482;28;93277;-72
2023/10/10 07:14:25;;;;;;;14.60;8.10;;;12.00;99.90;;;;;;4912808;28;88086;-72
2023/10/10 07:16:56;;;;;;;19.52;9.63;;;12.20;99.90;;;;;;4903821;28;90147;-72
2023/10/10 07:19:31;;;;;;;20.75;8.77;;;12.30;99.90;;;;;;4906901;28;89460;-72
2023/10/10 07:21:59;;;;;;;16.77;7.90;;;12.40;99.90;;;;;;4909794;28;90648;-72
2023/10/10 07:24:28;;;;;;;17.52;7.72;;;12.60;99.90;;;;;;4908853;28;88558;-71
2023/10/10 07:27:10;;;;;;;14.07;7.15;;;12.70;99.90;;;;;;4924230;28;87756;-73
2023/10/10 07:32:17;;;;;;;15.50;7.88;;;12.90;99.90;;;;;;4925572;28;88406;-72
2023/10/10 07:34:49;;;;;;;13.32;6.95;;;13.10;99.90;;;;;;4931005;28;87693;-72
2023/10/10 07:37:19;;;;;;;24.85;7.70;;;13.20;99.90;;;;;;4927334;28;90991;-73
2023/10/10 07:42:30;;;;;;;15.75;6.57;;;13.40;99.90;;;;;;4926084;28;87538;-72
2023/10/10 07:45:15;;;;;;;18.10;7.30;;;13.50;99.90;;;;;;4928283;28;87469;-72
2023/10/10 07:50:35;;;;;;;16.48;7.10;;;13.70;99.90;;;;;;4926452;28;88723;-73
2023/10/10 07:53:12;;;;;;;16.67;6.60;;;13.80;99.90;;;;;;4917665;28;91009;-72
2023/10/10 07:58:27;;;;;;;14.63;6.10;;;14.00;99.90;;;;;;4926151;28;87854;-73
2023/10/10 08:01:08;;;;;;;12.45;6.57;;;14.00;99.90;;;;;;4925774;28;88230;-73
2023/10/10 08:03:34;;;;;;;16.75;6.95;;;14.20;99.90;;;;;;4925814;28;88335;-75
2023/10/10 08:06:00;;;;;;;16.38;6.70;;;14.20;99.90;;;;;;4908629;28;88267;-76
2023/10/10 08:08:26;;;;;;;16.92;6.75;;;14.30;99.90;;;;;;4924569;28;87603;-74
2023/10/10 08:10:52;;;;;;;14.95;6.78;;;14.40;99.90;;;;;;4925540;28;91378;-74
2023/10/10 08:13:18;;;;;;;14.82;6.68;;;14.50;99.90;;;;;;4927899;28;90193;-75
2023/10/10 08:21:08;;;;;;;14.85;7.30;;;14.80;99.90;;;;;;4924485;28;88758;-75
2023/10/10 08:23:36;;;;;;;15.80;6.70;;;14.90;99.90;;;;;;4923880;28;91847;-75
2023/10/10 08:26:01;;;;;;;16.77;6.53;;;15.00;99.90;;;;;;4924497;28;87952;-75
2023/10/10 08:28:27;;;;;;;13.50;6.22;;;15.10;99.90;;;;;;4922821;28;89812;-75
2023/10/10 08:30:53;;;;;;;13.23;7.05;;;15.20;99.90;;;;;;4930279;28;91627;-75
2023/10/10 08:33:19;;;;;;;13.05;6.50;;;15.30;99.90;;;;;;4923696;28;88840;-75
2023/10/10 08:35:46;;;;;;;14.82;6.50;;;15.40;99.90;;;;;;4915167;28;87655;-75
2023/10/10 08:38:14;;;;;;;16.45;6.50;;;15.60;99.90;;;;;;4925655;28;87275;-75
2023/10/10 08:40:43;;;;;;;11.18;6.88;;;15.70;99.90;;;;;;4925011;28;88591;-73
2023/10/10 08:43:09;;;;;;;13.48;6.90;;;15.90;99.90;;;;;;4924644;28;88316;-73
2023/10/10 08:45:43;;;;;;;14.75;7.18;;;16.00;99.90;;;;;;4924774;28;89291;-75
2023/10/10 08:48:12;;;;;;;19.42;7.03;;;16.20;99.90;;;;;;4925543;28;87685;-75
2023/10/10 08:50:47;;;;;;;17.63;7.95;;;16.30;99.90;;;;;;4926919;28;91424;-75
2023/10/10 08:53:13;;;;;;;11.60;6.32;;;16.50;99.90;;;;;;4924952;28;91074;-75
2023/10/10 08:55:43;;;;;;;11.48;6.40;;;16.60;99.90;;;;;;4927725;28;87820;-75
2023/10/10 08:58:09;;;;;;;11.80;7.00;;;16.80;99.90;;;;;;4905600;28;88309;-75
2023/10/10 09:00:35;;;;;;;12.60;6.32;;;16.90;99.90;;;;;;4907428;28;92108;-74
2023/10/10 09:03:02;;;;;;;13.85;6.70;;;17.00;99.90;;;;;;4927179;28;91124;-74
2023/10/10 09:05:28;;;;;;;12.80;6.90;;;17.10;99.90;;;;;;4926117;28;87531;-75
2023/10/10 09:07:55;;;;;;;10.55;6.00;;;17.20;99.90;;;;;;4924894;28;87656;-75
2023/10/10 09:10:37;;;;;;;12.15;6.38;;;17.40;99.90;;;;;;4925221;28;90642;-75
2023/10/10 09:13:04;;;;;;;17.17;7.18;;;17.50;99.90;;;;;;4924582;28;89925;-75
2023/10/10 09:15:30;;;;;;;13.70;5.88;;;17.60;99.90;;;;;;4924383;28;87937;-75
2023/10/10 09:18:12;;;;;;;12.93;5.70;;;17.80;99.90;;;;;;4923487;28;88134;-75
2023/10/10 09:20:39;;;;;;;12.98;6.68;;;17.90;99.90;;;;;;4911525;28;89767;-75
2023/10/10 09:23:26;;;;;;;12.70;5.93;;;18.00;99.90;;;;;;4928153;28;90872;-75
2023/10/10 09:26:29;;;;;;;19.60;9.57;;;18.10;99.80;;;;;;4924491;28;88102;-75
2023/10/10 09:29:15;;;;;;;21.27;11.32;;;18.30;99.90;;;;;;4925987;28;87226;-75
2023/10/10 09:31:45;;;;;;;16.52;9.07;;;18.40;98.50;;;;;;4909402;28;90651;-75
2023/10/10 09:34:12;;;;;;;14.95;6.55;;;18.50;98.60;;;;;;4909958;28;91997;-74
2023/10/10 09:36:50;;;;;;;9.27;5.63;;;18.60;97.70;;;;;;4922976;28;88507;-75
2023/10/10 09:39:36;;;;;;;16.40;10.05;;;18.70;98.20;;;;;;4925111;28;87518;-75
2023/10/10 09:42:26;;;;;;;16.00;7.95;;;18.80;98.00;;;;;;4911186;28;96005;-74
2023/10/10 09:44:56;;;;;;;14.98;7.20;;;19.00;97.30;;;;;;4923945;28;93313;-75
2023/10/10 09:52:59;;;;;;;15.40;7.00;;;19.30;97.00;;;;;;4923062;28;88823;-75
2023/10/10 10:09:20;;;;;;;13.48;5.70;;;20.00;94.60;;;;;;4879104;28;87378;-75
2023/10/10 10:12:19;;;;;;;11.00;5.65;;;20.10;95.40;;;;;;4908119;28;94727;-75
2023/10/10 10:14:59;;;;;;;14.85;6.05;;;20.30;94.30;;;;;;4906153;28;96726;-75
2023/10/10 10:17:53;;;;;;;11.60;5.55;;;20.50;94.10;;;;;;4914536;28;91076;-75
2023/10/10 10:21:04;;;;;;;14.15;6.43;;;20.70;94.80;;;;;;4908274;28;88451;-75
2023/10/10 10:23:33;;;;;;;14.35;6.57;;;21.00;93.70;;;;;;4924237;28;87874;-75
2023/10/10 10:26:10;;;;;;;10.60;5.57;;;21.20;93.60;;;;;;4915689;28;91712;-75
2023/10/10 10:28:41;;;;;;;15.13;6.18;;;21.30;92.30;;;;;;4925584;28;91329;-75
2023/10/10 10:31:16;;;;;;;11.20;5.18;;;21.40;92.20;;;;;;4923009;28;88993;-75
2023/10/10 10:34:05;;;;;;;12.02;6.55;;;21.40;92.60;;;;;;4923881;28;87708;-77
2023/10/10 10:36:43;;;;;;;10.73;5.32;;;21.60;92.50;;;;;;4925933;28;88821;-77
2023/10/10 10:39:21;;;;;;;13.88;5.72;;;21.60;91.10;;;;;;4928369;28;91541;-77
2023/10/10 10:41:56;;;;;;;10.50;5.13;;;21.60;91.50;;;;;;4930124;28;88914;-78
2023/10/10 10:47:39;;;;;;;13.25;5.93;;;21.60;92.00;;;;;;4916673;28;89781;-75
2023/10/10 10:50:18;;;;;;;9.70;5.63;;;21.60;92.40;;;;;;4905471;28;91239;-76
2023/10/10 10:52:57;;;;;;;10.07;4.95;;;21.70;92.50;;;;;;4918570;28;87583;-77
2023/10/10 10:55:29;;;;;;;14.35;5.32;;;21.80;92.30;;;;;;4929913;28;90076;-77
2023/10/10 11:01:00;;;;;;;8.65;4.78;;;22.00;92.50;;;;;;4926609;28;89213;-76
2023/10/10 11:03:35;;;;;;;11.45;4.90;;;22.10;91.10;;;;;;4911781;28;88717;-77
2023/10/10 11:06:09;;;;;;;13.60;5.88;;;22.20;91.40;;;;;;4916868;28;89664;-77
2023/10/10 11:13:54;;;;;;;8.88;4.60;;;22.50;91.20;;;;;;4928863;28;87901;-77
2023/10/10 11:16:24;;;;;;;8.30;4.18;;;22.60;91.00;;;;;;4928166;28;87209;-77
2023/10/10 11:18:57;;;;;;;10.73;4.75;;;22.70;91.00;;;;;;4921961;28;91606;-77
2023/10/10 11:21:28;;;;;;;14.85;5.15;;;22.80;90.40;;;;;;4935431;28;91658;-76
2023/10/10 11:23:58;;;;;;;10.27;4.70;;;23.00;91.30;;;;;;4934571;28;88368;-78
2023/10/10 11:26:27;;;;;;;13.43;6.43;;;23.10;90.60;;;;;;4928473;28;87396;-78
2023/10/10 11:28:59;;;;;;;16.40;6.90;;;23.20;90.30;;;;;;4919663;28;91826;-78
2023/10/10 11:31:29;;;;;;;12.60;5.70;;;23.40;89.60;;;;;;4927502;28;88486;-78
2023/10/10 11:34:12;;;;;;;9.80;4.57;;;23.50;84.60;;;;;;4928503;28;87760;-77
2023/10/10 11:37:12;;;;;;;11.10;5.90;;;23.60;83.90;;;;;;4920988;28;90725;-76
2023/10/10 11:39:46;;;;;;;14.68;5.25;;;23.70;84.30;;;;;;4914254;28;91373;-76
2023/10/10 11:42:35;;;;;;;10.63;5.80;;;23.80;84.80;;;;;;4930604;28;91472;-76
2023/10/10 11:45:25;;;;;;;6.40;3.85;;;24.00;81.20;;;;;;4927482;28;88882;-76
2023/10/10 11:47:52;;;;;;;13.88;4.20;;;24.00;78.50;;;;;;4925764;28;91816;-76
2023/10/10 11:50:43;;;;;;;10.20;3.95;;;24.10;80.20;;;;;;4924603;28;94059;-77
2023/10/10 11:53:05;;;;;;;10.90;5.25;;;24.20;81.50;;;;;;4925753;28;90478;-76
2023/10/10 11:55:31;;;;;;;8.70;3.83;;;24.40;80.70;;;;;;4927418;28;87634;-77
2023/10/10 11:58:06;;;;;;;12.88;4.30;;;24.50;80.00;;;;;;4913774;28;89996;-76
2023/10/10 12:00:42;;;;;;;8.82;4.05;;;24.70;80.60;;;;;;4916587;28;91384;-76
2023/10/10 12:03:32;;;;;;;10.50;4.15;;;24.70;78.70;;;;;;4912642;28;91403;-76
2023/10/10 12:05:59;;;;;;;8.10;3.58;;;24.90;78.50;;;;;;4912011;28;88945;-76
2023/10/10 12:08:25;;;;;;;11.75;4.57;;;24.90;76.90;;;;;;4911770;28;90506;-76
2023/10/10 12:10:52;;;;;;;22.20;8.43;;;25.00;77.00;;;;;;4910717;28;89104;-77
2023/10/10 12:13:34;;;;;;;17.88;10.65;;;25.00;76.30;;;;;;4916047;28;88241;-76
2023/10/10 12:16:07;;;;;;;13.35;5.55;;;25.10;75.20;;;;;;4923643;28;89432;-78
2023/10/10 12:18:43;;;;;;;15.30;5.95;;;25.20;77.10;;;;;;4915541;28;90310;-77
2023/10/10 12:21:10;;;;;;;11.43;5.05;;;25.50;78.10;;;;;;4927788;28;87764;-78
2023/10/10 12:23:36;;;;;;;10.30;4.95;;;25.70;76.10;;;;;;4916079;28;90637;-76
2023/10/10 12:26:04;;;;;;;7.57;3.72;;;25.80;74.00;;;;;;4926513;28;87816;-77
2023/10/10 12:28:30;;;;;;;6.40;3.47;;;26.00;73.60;;;;;;4924940;28;87794;-79
2023/10/10 12:30:56;;;;;;;7.20;3.60;;;26.10;71.90;;;;;;4913724;28;90612;-77
2023/10/10 12:33:31;;;;;;;13.40;3.60;;;26.20;69.10;;;;;;4926495;28;88439;-76
2023/10/10 12:35:57;;;;;;;8.95;3.22;;;26.30;69.90;;;;;;4927410;28;88145;-78
2023/10/10 12:38:23;;;;;;;9.25;3.22;;;26.40;68.10;;;;;;4917256;28;90423;-76
2023/10/10 12:40:53;;;;;;;9.65;3.72;;;26.60;64.00;;;;;;4926275;28;89813;-77
2023/10/10 12:43:25;;;;;;;8.05;3.35;;;26.70;62.40;;;;;;4913175;28;92123;-76
2023/10/10 12:45:51;;;;;;;11.80;4.03;;;27.00;62.80;;;;;;4927926;28;87534;-77
2023/10/10 12:48:20;;;;;;;6.30;3.00;;;27.10;59.20;;;;;;4929547;28;90185;-79
2023/10/10 12:50:50;;;;;;;8.50;2.97;;;27.20;56.70;;;;;;4908213;28;91460;-77
2023/10/10 12:53:19;;;;;;;8.93;3.67;;;27.30;56.50;;;;;;4889837;28;90966;-76
2023/10/10 12:55:48;;;;;;;9.80;3.90;;;27.40;56.60;;;;;;4909999;28;88113;-79
2023/10/10 12:58:37;;;;;;;8.55;3.20;;;27.70;59.10;;;;;;4919223;28;90853;-79
2023/10/10 13:01:02;;;;;;;9.00;3.15;;;28.00;57.50;;;;;;4929376;28;91516;-76
2023/10/10 13:03:30;;;;;;;14.85;2.85;;;28.20;55.10;;;;;;4924603;28;87627;-73
2023/10/10 13:06:00;;;;;;;6.55;3.28;;;28.30;54.10;;;;;;4930261;28;88568;-73
2023/10/10 13:11:43;;;;;;;8.32;2.90;;;28.70;55.10;;;;;;4892269;28;89958;-74
2023/10/10 13:14:10;;;;;;;11.15;3.00;;;28.80;54.10;;;;;;4891103;28;91399;-73
2023/10/10 13:19:09;;;;;;;6.00;3.35;;;29.00;52.80;;;;;;4885815;28;87508;-74
2023/10/10 13:21:53;;;;;;;9.00;2.78;;;29.30;54.40;;;;;;4889979;28;87850;-75
2023/10/10 13:24:20;;;;;;;9.35;3.10;;;29.50;53.30;;;;;;4930550;28;91335;-75
2023/10/10 13:26:49;;;;;;;10.65;3.25;;;29.70;53.40;;;;;;4914763;28;87527;-74
2023/10/10 13:29:16;;;;;;;9.10;3.22;;;29.80;49.60;;;;;;4927235;28;87849;-74
2023/10/10 13:31:44;;;;;;;7.60;2.60;;;29.90;51.40;;;;;;4925200;28;89655;-74
2023/10/10 13:34:10;;;;;;;14.40;3.47;;;30.10;50.60;;;;;;4911940;28;92674;-74
2023/10/10 13:36:36;;;;;;;9.15;2.63;;;30.30;47.40;;;;;;4911986;28;87734;-73
2023/10/10 13:39:06;;;;;;;7.80;2.75;;;30.40;47.20;;;;;;4911103;28;89456;-74
2023/10/10 13:41:35;;;;;;;11.27;2.70;;;30.50;45.10;;;;;;4916341;28;91765;-76
2023/10/10 13:44:02;;;;;;;11.75;2.75;;;30.60;45.50;;;;;;4929983;28;91249;-75
2023/10/10 13:46:32;;;;;;;5.85;2.28;;;30.80;45.90;;;;;;4912309;28;90981;-76
2023/10/10 13:48:58;;;;;;;8.65;3.10;;;31.00;45.30;;;;;;4915829;28;94731;-74
2023/10/10 13:51:27;;;;;;;6.30;2.75;;;31.30;46.20;;;;;;4911721;28;91008;-74
2023/10/10 13:53:56;;;;;;;7.15;2.70;;;31.60;47.20;;;;;;4930490;28;89823;-74
2023/10/10 13:56:22;;;;;;;9.55;2.88;;;31.90;45.90;;;;;;4924787;28;88479;-74
2023/10/10 13:58:48;;;;;;;7.95;3.03;;;32.20;45.60;;;;;;4925035;28;88324;-74
2023/10/10 14:01:37;;;;;;;14.85;3.35;;;32.60;45.70;;;;;;4924034;28;88030;-74
2023/10/10 14:06:47;;;;;;;8.73;3.38;;;32.60;45.10;;;;;;4926839;28;87635;-73
2023/10/10 14:09:24;;;;;;;7.03;2.78;;;32.60;44.20;;;;;;4924741;28;88580;-75
2023/10/10 14:12:02;;;;;;;6.15;2.58;;;32.50;44.10;;;;;;4929197;28;96542;-77
2023/10/10 14:14:32;;;;;;;6.70;3.42;;;32.50;45.00;;;;;;4912547;28;92378;-74
2023/10/10 14:17:00;;;;;;;11.15;2.95;;;32.30;42.70;;;;;;4913086;28;87824;-74
2023/10/10 14:19:25;;;;;;;7.60;3.17;;;32.20;43.20;;;;;;4915537;28;90377;-75
2023/10/10 14:21:52;;;;;;;7.05;2.85;;;32.00;44.10;;;;;;4924153;28;89181;-75
2023/10/10 14:24:19;;;;;;;7.32;2.75;;;31.90;43.80;;;;;;4911890;28;90753;-74
2023/10/10 14:26:45;;;;;;;9.68;2.85;;;31.90;44.40;;;;;;4887802;28;89345;-76
2023/10/10 14:29:13;;;;;;;6.50;2.30;;;32.00;43.30;;;;;;4875721;28;90878;-75
2023/10/10 14:31:42;;;;;;;15.15;3.03;;;32.20;43.90;;;;;;4918288;28;91312;-73
2023/10/10 14:34:11;;;;;;;8.30;3.10;;;32.40;43.10;;;;;;4928333;28;92092;-73
2023/10/10 14:36:39;;;;;;;5.78;3.00;;;32.50;43.20;;;;;;4926293;28;87875;-75
2023/10/10 14:39:08;;;;;;;7.60;2.60;;;32.60;43.60;;;;;;4927811;28;87152;-74
2023/10/10 14:41:34;;;;;;;8.55;2.97;;;32.80;43.10;;;;;;4927639;28;88378;-76
2023/10/10 14:44:01;;;;;;;10.32;3.25;;;33.10;41.80;;;;;;4927439;28;91411;-74
2023/10/10 14:46:32;;;;;;;6.65;2.28;;;33.30;43.10;;;;;;4915959;28;88718;-77
2023/10/10 14:49:16;;;;;;;10.65;2.53;;;33.20;40.90;;;;;;4927912;28;88371;-75
2023/10/10 14:51:48;;;;;;;9.38;2.78;;;33.00;41.20;;;;;;4930008;28;91820;-72
2023/10/10 14:54:19;;;;;;;9.55;2.67;;;33.20;40.80;;;;;;4928369;28;87872;-74
2023/10/10 14:56:51;;;;;;;10.30;3.22;;;33.20;41.70;;;;;;4912139;28;87882;-77
2023/10/10 14:59:20;;;;;;;17.80;2.57;;;33.30;41.10;;;;;;4910229;28;90343;-75
2023/10/10 15:01:59;;;;;;;10.52;3.03;;;33.20;40.40;;;;;;4903828;28;92041;-75
2023/10/10 15:04:28;;;;;;;8.25;2.70;;;33.10;41.80;;;;;;4907206;28;89231;-75
2023/10/10 15:06:55;;;;;;;7.25;2.60;;;33.00;40.80;;;;;;4918236;28;88547;-75
2023/10/10 15:09:25;;;;;;;11.18;2.67;;;33.10;41.30;;;;;;4928590;28;88052;-77
2023/10/10 15:11:52;;;;;;;9.88;3.13;;;33.20;41.30;;;;;;4917664;28;92827;-76
2023/10/10 15:14:21;;;;;;;9.45;2.45;;;33.20;41.00;;;;;;4930133;28;91877;-73
2023/10/10 15:16:47;;;;;;;8.27;2.42;;;33.00;40.40;;;;;;4934468;28;88030;-73
2023/10/10 15:19:13;;;;;;;8.75;2.75;;;33.10;41.10;;;;;;4910904;28;90684;-75
2023/10/10 15:21:39;;;;;;;7.05;2.65;;;33.20;41.60;;;;;;4928340;28;91072;-73
2023/10/10 15:24:11;;;;;;;14.27;3.58;;;33.40;40.20;;;;;;4909734;28;91592;-73
2023/10/10 15:26:38;;;;;;;10.13;2.72;;;33.50;41.10;;;;;;4910655;28;90186;-72
2023/10/10 15:29:04;;;;;;;5.78;3.15;;;33.50;40.30;;;;;;4909990;28;90392;-75
2023/10/10 15:31:31;;;;;;;10.45;2.53;;;33.50;40.30;;;;;;4920347;28;88326;-73
2023/10/10 15:34:00;;;;;;;7.18;2.90;;;33.50;41.10;;;;;;4922362;28;89350;-73
2023/10/10 15:36:30;;;;;;;8.48;2.80;;;33.40;40.20;;;;;;4921695;28;88899;-74
2023/10/10 15:39:07;;;;;;;6.72;2.97;;;33.40;40.90;;;;;;4913713;28;90801;-72
2023/10/10 15:41:34;;;;;;;6.72;2.85;;;33.40;40.10;;;;;;4925685;28;88701;-76
2023/10/10 15:44:03;;;;;;;9.23;2.97;;;33.50;41.10;;;;;;4921249;28;91067;-76
2023/10/10 15:46:34;;;;;;;8.10;2.65;;;33.50;41.10;;;;;;4929358;28;87958;-73
2023/10/10 15:49:03;;;;;;;8.90;2.70;;;33.40;40.20;;;;;;4911103;28;92575;-73
2023/10/10 15:51:30;;;;;;;8.88;2.95;;;33.50;40.80;;;;;;4925577;28;90778;-77
2023/10/10 15:53:56;;;;;;;7.95;3.03;;;33.60;41.20;;;;;;4904791;28;91079;-72
2023/10/10 15:56:28;;;;;;;12.98;3.45;;;33.60;41.90;;;;;;4904619;28;87541;-73
2023/10/10 15:58:58;;;;;;;7.68;2.70;;;33.70;41.10;;;;;;4907626;28;90315;-73
2023/10/10 16:01:29;;;;;;;9.10;2.67;;;33.60;41.60;;;;;;4907993;28;92384;-75
2023/10/10 16:04:13;;;;;;;6.10;2.40;;;33.60;41.50;;;;;;4912698;28;92372;-72
2023/10/10 16:06:42;;;;;;;5.38;2.60;;;33.40;42.00;;;;;;4894508;28;87830;-72
2023/10/10 16:09:19;;;;;;;12.25;2.78;;;33.10;42.90;;;;;;4910132;28;90403;-72
2023/10/10 16:11:52;;;;;;;7.40;2.80;;;32.60;42.60;;;;;;4909444;28;95872;-74
2023/10/10 16:14:19;;;;;;;9.90;2.53;;;32.00;43.90;;;;;;4909181;28;91035;-73
2023/10/10 16:16:47;;;;;;;16.10;2.78;;;31.30;44.90;;;;;;4924991;28;88113;-74
2023/10/10 16:19:15;;;;;;;10.48;2.83;;;30.70;46.00;;;;;;4925335;28;87096;-74